Time;durP1;ratioP1;P1;durP2;ratioP2;P2;SDS_P1;SDS_P2;PMS_P1;PMS_P2;Temp;Humidity;BMP_temperature;BMP_pressure;BME280_temperature;BME280_humidity;BME280_pressure;Samples;Min_cycle;Max_cycle;Signal;HPM_P1;HPM_P2
2022/04/18 00:00:07;;;;;;;0.77;0.77;;;17.00;57.80;;;;;;5181775;28;20241;-62
2022/04/18 00:03:03;;;;;;;1.93;0.80;;;17.00;57.90;;;;;;5184017;28;20674;-63
2022/04/18 00:05:55;;;;;;;0.93;0.73;;;17.00;57.90;;;;;;5181847;28;20190;-62
2022/04/18 00:08:49;;;;;;;0.83;0.80;;;17.00;57.90;;;;;;5184183;28;20208;-61
2022/04/18 00:11:41;;;;;;;0.90;0.80;;;17.00;57.90;;;;;;5183238;28;20222;-62
2022/04/18 00:14:34;;;;;;;1.00;0.80;;;17.00;58.00;;;;;;5188296;28;20226;-62
2022/04/18 00:17:26;;;;;;;0.90;0.70;;;17.00;58.00;;;;;;5201527;28;20213;-63
2022/04/18 00:20:18;;;;;;;1.17;0.80;;;17.00;58.00;;;;;;5183256;28;20218;-63
2022/04/18 00:23:10;;;;;;;1.00;0.90;;;17.00;58.00;;;;;;5178117;28;20199;-63
2022/04/18 00:26:03;;;;;;;0.87;0.63;;;17.00;58.00;;;;;;5186043;28;20186;-63
2022/04/18 00:28:55;;;;;;;0.80;0.70;;;17.00;57.90;;;;;;5184165;28;20213;-63
2022/04/18 00:31:48;;;;;;;0.93;0.83;;;17.00;57.90;;;;;;5186658;28;20806;-63
2022/04/18 00:34:40;;;;;;;0.80;0.70;;;17.00;58.00;;;;;;5192685;28;20210;-63
2022/04/18 00:37:32;;;;;;;0.87;0.80;;;17.00;57.90;;;;;;5184358;28;20206;-64
2022/04/18 00:40:24;;;;;;;0.90;0.77;;;17.00;58.00;;;;;;5179711;28;20729;-63
2022/04/18 00:43:17;;;;;;;1.20;0.87;;;17.00;58.00;;;;;;5164375;28;20201;-63
2022/04/18 00:46:12;;;;;;;0.70;0.67;;;17.00;57.90;;;;;;5163150;28;20245;-63
2022/04/18 00:49:04;;;;;;;1.30;1.00;;;16.90;57.80;;;;;;5169043;28;20270;-62
2022/04/18 00:51:57;;;;;;;1.53;0.80;;;17.00;57.90;;;;;;5199342;28;20205;-63
2022/04/18 00:54:51;;;;;;;0.70;0.70;;;17.00;58.00;;;;;;5171878;28;20226;-62
2022/04/18 00:57:44;;;;;;;1.27;0.90;;;16.90;57.90;;;;;;5163954;28;20321;-63
2022/04/18 01:00:38;;;;;;;0.50;0.50;;;16.90;57.90;;;;;;5170262;28;20225;-61
2022/04/18 01:03:30;;;;;;;0.87;0.73;;;16.90;58.00;;;;;;5163930;28;20570;-62
2022/04/18 01:06:22;;;;;;;0.70;0.70;;;17.00;58.00;;;;;;5166819;28;20190;-62
2022/04/18 01:09:15;;;;;;;1.03;0.80;;;17.00;58.00;;;;;;5183647;28;20194;-62
2022/04/18 01:12:08;;;;;;;0.90;0.90;;;17.00;58.00;;;;;;5182932;28;20543;-62
2022/04/18 01:15:00;;;;;;;1.17;0.83;;;17.00;58.00;;;;;;5187259;28;20214;-63
2022/04/18 01:17:54;;;;;;;1.17;1.00;;;17.00;57.90;;;;;;5186001;28;20201;-63
2022/04/18 01:20:47;;;;;;;1.30;0.90;;;16.90;57.90;;;;;;5182256;28;20233;-64
2022/04/18 01:23:39;;;;;;;1.63;0.90;;;17.00;58.00;;;;;;5166330;28;20198;-63
2022/04/18 01:29:54;;;;;;;1.10;0.77;;;16.90;57.90;;;;;;5101232;29;20244;-63
2022/04/18 01:32:46;;;;;;;0.80;0.80;;;16.90;57.90;;;;;;5179383;28;20209;-63
2022/04/18 01:35:38;;;;;;;1.53;0.83;;;16.90;57.90;;;;;;5181900;28;20356;-63
2022/04/18 01:38:31;;;;;;;0.87;0.87;;;16.90;57.80;;;;;;5164142;28;20196;-63
2022/04/18 01:41:24;;;;;;;1.07;0.80;;;16.90;57.90;;;;;;5162711;28;20687;-63
2022/04/18 01:44:16;;;;;;;1.07;0.90;;;17.00;57.90;;;;;;5168954;28;20326;-62
2022/04/18 01:47:08;;;;;;;0.77;0.77;;;17.00;57.90;;;;;;5182667;28;20210;-62
2022/04/18 01:50:00;;;;;;;0.80;0.80;;;16.90;57.90;;;;;;5186226;28;20222;-63
2022/04/18 01:52:52;;;;;;;1.57;0.80;;;17.00;58.00;;;;;;5206617;28;20194;-63
2022/04/18 01:55:46;;;;;;;1.23;0.90;;;16.90;57.90;;;;;;5186847;28;20215;-63
2022/04/18 01:58:38;;;;;;;0.83;0.60;;;16.90;57.90;;;;;;5185823;28;20202;-62
2022/04/18 02:01:30;;;;;;;1.83;0.80;;;16.90;57.90;;;;;;5186326;28;20269;-63
2022/04/18 02:04:22;;;;;;;1.23;0.90;;;16.90;57.80;;;;;;5187094;28;20198;-63
2022/04/18 02:07:15;;;;;;;1.33;0.90;;;16.90;57.90;;;;;;5186872;28;20194;-63
2022/04/18 02:10:08;;;;;;;1.93;0.93;;;16.90;57.90;;;;;;5186884;28;20222;-62
2022/04/18 02:13:02;;;;;;;0.90;0.70;;;16.90;57.90;;;;;;5185240;28;20198;-62
2022/04/18 02:15:55;;;;;;;1.20;0.83;;;16.90;57.90;;;;;;5187670;28;20222;-63
2022/04/18 02:18:47;;;;;;;1.50;1.00;;;16.90;57.90;;;;;;5183888;28;20654;-62
2022/04/18 02:21:39;;;;;;;0.93;0.83;;;16.90;57.80;;;;;;5185306;28;20206;-62
2022/04/18 02:24:32;;;;;;;0.80;0.70;;;16.90;57.80;;;;;;5185577;28;20194;-63
2022/04/18 02:27:24;;;;;;;1.10;0.90;;;16.90;57.90;;;;;;5184977;28;20209;-61
2022/04/18 02:30:17;;;;;;;1.47;0.90;;;16.90;57.90;;;;;;5185532;28;20229;-62
2022/04/18 02:33:09;;;;;;;1.10;1.00;;;16.90;57.90;;;;;;5184750;28;20197;-62
2022/04/18 02:36:02;;;;;;;1.50;1.20;;;16.90;57.90;;;;;;5184774;28;20693;-62
2022/04/18 02:38:54;;;;;;;0.83;0.80;;;16.90;57.80;;;;;;5185542;28;20582;-62
2022/04/18 02:41:46;;;;;;;1.10;0.77;;;16.90;57.80;;;;;;5184810;28;20194;-63
2022/04/18 02:44:38;;;;;;;1.00;0.80;;;16.90;58.40;;;;;;5185203;28;20198;-62
2022/04/18 02:47:31;;;;;;;1.20;0.80;;;16.90;57.90;;;;;;5185051;28;20199;-63
2022/04/18 02:50:23;;;;;;;1.00;0.90;;;16.90;57.80;;;;;;5187930;28;20719;-62
2022/04/18 02:53:15;;;;;;;1.07;0.97;;;16.90;57.90;;;;;;5191536;28;20191;-62
2022/04/18 02:56:08;;;;;;;1.03;0.77;;;16.90;58.40;;;;;;5189293;28;20214;-63
2022/04/18 02:59:00;;;;;;;1.27;1.00;;;16.90;57.80;;;;;;5210089;23;20205;-66
2022/04/18 03:01:52;;;;;;;1.20;0.90;;;16.90;57.90;;;;;;5192777;28;20755;-66
2022/04/18 03:04:45;;;;;;;1.20;0.90;;;16.90;57.90;;;;;;5200034;28;20190;-66
2022/04/18 03:07:38;;;;;;;1.13;0.90;;;16.90;57.80;;;;;;5197569;28;20272;-66
2022/04/18 03:13:44;;;;;;;1.13;0.87;;;16.90;57.90;;;;;;5181147;28;20204;-66
2022/04/18 03:16:36;;;;;;;2.50;1.00;;;16.90;57.80;;;;;;5178002;28;20242;-66
2022/04/18 03:19:28;;;;;;;1.57;1.17;;;16.90;57.90;;;;;;5184619;28;20228;-66
2022/04/18 03:22:21;;;;;;;1.83;1.13;;;16.90;57.80;;;;;;5178264;28;20201;-66
2022/04/18 03:25:13;;;;;;;0.83;0.83;;;16.90;57.90;;;;;;5182465;28;20650;-66
2022/04/18 03:28:05;;;;;;;1.17;0.90;;;16.90;57.90;;;;;;5185739;28;20735;-64
2022/04/18 03:30:58;;;;;;;1.00;0.90;;;16.90;57.90;;;;;;5181216;28;20309;-66
2022/04/18 03:33:50;;;;;;;1.10;1.00;;;16.90;57.80;;;;;;5178464;28;20198;-66
2022/04/18 03:39:54;;;;;;;1.20;0.83;;;16.90;57.70;;;;;;5183525;28;20206;-66
2022/04/18 03:42:46;;;;;;;1.17;0.80;;;16.90;57.70;;;;;;5183828;28;20199;-66
2022/04/18 03:45:38;;;;;;;1.37;1.00;;;16.90;57.70;;;;;;5181293;28;20199;-66
2022/04/18 03:48:30;;;;;;;0.87;0.80;;;16.90;57.70;;;;;;5183814;28;20206;-66
2022/04/18 03:51:22;;;;;;;1.00;0.90;;;17.00;57.80;;;;;;5181935;28;20199;-66
2022/04/18 03:54:14;;;;;;;0.83;0.80;;;16.90;57.70;;;;;;5188180;28;20574;-65
2022/04/18 03:57:08;;;;;;;1.10;0.90;;;17.00;57.70;;;;;;5183713;28;20193;-65
2022/04/18 04:00:00;;;;;;;1.10;0.97;;;17.00;57.70;;;;;;5184936;28;20229;-66
2022/04/18 04:02:52;;;;;;;1.67;1.00;;;17.00;57.60;;;;;;5182920;28;20213;-66
2022/04/18 04:05:44;;;;;;;0.90;0.90;;;17.00;57.50;;;;;;5181068;28;20194;-66
2022/04/18 04:08:36;;;;;;;1.00;0.80;;;17.00;57.70;;;;;;5177958;28;20696;-66
2022/04/18 04:11:29;;;;;;;2.07;0.90;;;17.00;57.60;;;;;;5181302;28;20570;-66
2022/04/18 04:14:23;;;;;;;1.10;0.90;;;17.00;57.70;;;;;;5183382;28;20199;-66
2022/04/18 04:17:15;;;;;;;1.40;0.90;;;17.00;57.70;;;;;;5184931;28;20759;-65
2022/04/18 04:20:08;;;;;;;1.67;1.10;;;17.00;57.80;;;;;;5184160;28;20240;-65
2022/04/18 04:23:00;;;;;;;1.30;0.77;;;17.00;57.60;;;;;;5184243;28;20199;-66
2022/04/18 04:25:52;;;;;;;2.33;1.00;;;17.00;57.70;;;;;;5183274;28;20201;-66
2022/04/18 04:28:44;;;;;;;1.20;0.97;;;17.00;57.60;;;;;;5184066;28;20202;-66
2022/04/18 04:31:37;;;;;;;2.43;0.97;;;17.00;57.70;;;;;;5184257;28;20195;-66
2022/04/18 04:34:29;;;;;;;0.93;0.90;;;17.00;57.70;;;;;;5183821;28;20194;-66
2022/04/18 04:37:22;;;;;;;1.30;1.00;;;17.00;57.80;;;;;;5184633;28;20566;-66
2022/04/18 04:40:14;;;;;;;1.67;1.10;;;17.00;57.70;;;;;;5183999;28;20709;-65
2022/04/18 04:43:06;;;;;;;1.70;0.80;;;17.00;57.70;;;;;;5163297;28;20680;-65
2022/04/18 04:46:00;;;;;;;1.33;0.90;;;17.00;57.60;;;;;;5170579;28;20187;-66
2022/04/18 04:48:53;;;;;;;0.97;0.80;;;17.00;57.60;;;;;;5182685;28;20205;-66
2022/04/18 04:51:45;;;;;;;1.33;1.20;;;17.00;57.70;;;;;;5183432;28;20195;-66
2022/04/18 04:54:37;;;;;;;1.17;1.00;;;17.00;57.80;;;;;;5183726;28;20202;-66
2022/04/18 04:57:29;;;;;;;0.77;0.60;;;17.00;57.60;;;;;;5182038;28;20202;-66
2022/04/18 05:00:21;;;;;;;1.10;0.90;;;17.00;57.70;;;;;;5182559;28;20222;-66
2022/04/18 05:03:14;;;;;;;1.00;0.90;;;17.00;57.50;;;;;;5182519;28;20578;-65
2022/04/18 05:06:07;;;;;;;1.07;0.97;;;17.00;57.60;;;;;;5182537;28;20305;-64
2022/04/18 05:08:59;;;;;;;1.03;0.90;;;17.00;57.70;;;;;;5203198;28;20194;-66
2022/04/18 05:11:52;;;;;;;1.10;1.00;;;17.00;57.70;;;;;;5184260;28;20659;-66
2022/04/18 05:14:44;;;;;;;1.73;1.20;;;17.10;57.80;;;;;;5179645;28;20196;-66
2022/04/18 05:17:36;;;;;;;1.60;1.00;;;17.00;57.80;;;;;;5203090;28;20337;-66
2022/04/18 05:20:29;;;;;;;1.60;1.10;;;17.00;57.70;;;;;;5184641;28;20225;-66
2022/04/18 05:23:22;;;;;;;1.83;0.90;;;17.00;57.60;;;;;;5186399;28;20198;-66
2022/04/18 05:26:14;;;;;;;1.70;1.13;;;17.00;57.70;;;;;;5207923;28;20194;-65
2022/04/18 05:29:06;;;;;;;1.30;1.10;;;17.00;57.60;;;;;;5207374;28;20221;-65
2022/04/18 05:31:58;;;;;;;1.60;1.00;;;17.00;57.70;;;;;;5204000;28;20202;-67
2022/04/18 05:34:50;;;;;;;1.53;1.17;;;17.10;57.80;;;;;;5203407;28;20191;-66
2022/04/18 05:37:42;;;;;;;1.83;1.10;;;17.00;57.60;;;;;;5183897;28;20198;-66
2022/04/18 05:40:36;;;;;;;1.57;1.10;;;17.00;57.70;;;;;;5198953;28;20214;-66
2022/04/18 05:43:29;;;;;;;1.80;1.03;;;17.00;57.70;;;;;;5184464;28;20281;-66
2022/04/18 05:46:22;;;;;;;2.07;1.17;;;17.00;57.70;;;;;;5186900;28;20270;-66
2022/04/18 05:49:14;;;;;;;1.60;1.13;;;17.00;57.60;;;;;;5200021;28;20221;-65
2022/04/18 05:52:06;;;;;;;1.40;1.10;;;17.00;57.80;;;;;;5186404;28;20198;-64
2022/04/18 05:54:58;;;;;;;1.57;1.00;;;17.00;57.70;;;;;;5184025;28;20569;-66
2022/04/18 05:57:52;;;;;;;1.93;1.30;;;17.00;57.70;;;;;;5185428;28;20190;-66
2022/04/18 06:00:44;;;;;;;1.47;1.10;;;17.00;57.80;;;;;;5186425;28;20237;-67
2022/04/18 06:03:37;;;;;;;2.07;1.27;;;17.00;57.70;;;;;;5186677;28;20209;-66
2022/04/18 06:06:29;;;;;;;1.30;1.03;;;17.00;57.70;;;;;;5184480;28;20272;-66
2022/04/18 06:09:21;;;;;;;1.37;1.10;;;17.00;57.70;;;;;;5182927;28;20219;-65
2022/04/18 06:12:13;;;;;;;1.70;1.30;;;17.00;57.80;;;;;;5184406;28;20390;-66
2022/04/18 06:15:08;;;;;;;1.60;1.10;;;17.00;57.80;;;;;;5183897;28;20203;-65
2022/04/18 06:18:00;;;;;;;1.20;1.07;;;17.10;57.80;;;;;;5184240;28;20206;-66
2022/04/18 06:20:52;;;;;;;1.23;1.00;;;17.00;57.80;;;;;;5183007;28;20215;-66
2022/04/18 06:23:44;;;;;;;1.13;0.97;;;17.00;57.80;;;;;;5184035;28;20201;-66
2022/04/18 06:26:36;;;;;;;1.17;1.00;;;17.00;57.80;;;;;;5181430;28;20195;-66
2022/04/18 06:29:28;;;;;;;1.87;1.00;;;17.00;57.80;;;;;;5183326;28;20234;-66
2022/04/18 06:32:24;;;;;;;1.47;1.23;;;17.00;57.80;;;;;;5182576;28;20209;-66
2022/04/18 06:35:16;;;;;;;1.80;1.47;;;17.00;57.80;;;;;;5182629;28;20217;-67
2022/04/18 06:38:09;;;;;;;1.20;1.10;;;17.00;57.80;;;;;;5185501;28;20197;-65
2022/04/18 06:41:01;;;;;;;1.30;1.20;;;17.00;57.80;;;;;;5183609;28;20226;-66
2022/04/18 06:43:53;;;;;;;1.10;1.00;;;17.00;57.80;;;;;;5183393;28;20198;-67
2022/04/18 06:46:45;;;;;;;1.33;1.10;;;17.00;57.70;;;;;;5182856;28;20696;-66
2022/04/18 06:49:39;;;;;;;1.30;1.00;;;17.00;57.70;;;;;;5184909;28;20218;-67
2022/04/18 06:52:38;;;;;;;1.47;1.10;;;17.00;57.60;;;;;;5184976;28;20206;-67
2022/04/18 06:56:58;;;;;;;2.00;1.73;;;17.00;57.80;;;;;;5185569;28;20194;-66
2022/04/18 06:58:42;;;;;;;2.37;2.17;;;17.00;57.90;;;;;;5165210;28;20207;-66
2022/04/18 07:01:35;;;;;;;4.43;3.10;;;17.00;57.90;;;;;;5160867;28;20715;-66
2022/04/18 07:04:27;;;;;;;3.27;2.93;;;17.00;57.90;;;;;;5180068;28;20693;-66
2022/04/18 07:07:21;;;;;;;3.47;2.73;;;17.00;57.90;;;;;;5185298;28;20269;-66
2022/04/18 07:10:13;;;;;;;5.70;3.63;;;17.00;57.90;;;;;;5185538;28;20744;-66
2022/04/18 07:13:05;;;;;;;3.93;3.10;;;17.00;57.90;;;;;;5185228;28;20206;-66
2022/04/18 07:15:57;;;;;;;7.10;4.10;;;17.00;58.00;;;;;;5185272;28;20225;-66
2022/04/18 07:18:49;;;;;;;5.37;3.87;;;17.00;58.00;;;;;;5185355;28;20300;-67
2022/04/18 07:21:42;;;;;;;4.47;3.93;;;17.00;58.00;;;;;;5184586;28;20203;-66
2022/04/18 07:24:35;;;;;;;4.50;3.73;;;17.00;58.10;;;;;;5186258;28;20543;-66
2022/04/18 07:27:28;;;;;;;6.63;5.10;;;17.00;58.10;;;;;;5178095;28;20190;-66
2022/04/18 07:30:20;;;;;;;6.13;4.70;;;17.00;58.10;;;;;;5176784;28;20242;-66
2022/04/18 07:33:14;;;;;;;5.97;4.70;;;17.00;58.20;;;;;;5200032;28;20201;-67
2022/04/18 07:36:06;;;;;;;5.33;4.40;;;17.00;58.20;;;;;;5197002;28;20241;-65
2022/04/18 07:38:58;;;;;;;6.10;5.50;;;17.00;58.20;;;;;;5184076;28;20428;-62
2022/04/18 07:41:52;;;;;;;6.43;5.67;;;17.10;58.00;;;;;;5175401;28;20214;-62
2022/04/18 07:44:44;;;;;;;6.97;5.80;;;17.10;58.10;;;;;;5165819;28;20727;-62
2022/04/18 07:47:36;;;;;;;7.63;6.10;;;17.10;58.10;;;;;;5182988;28;20202;-61
2022/04/18 07:53:34;;;;;;;7.63;5.70;;;17.10;58.20;;;;;;5172721;28;20210;-61
2022/04/18 07:56:26;;;;;;;6.77;5.87;;;17.10;58.30;;;;;;5175479;28;20223;-63
2022/04/18 07:59:22;;;;;;;9.73;5.73;;;17.10;58.30;;;;;;5184405;28;20222;-62
2022/04/18 08:02:14;;;;;;;7.00;5.43;;;17.10;58.40;;;;;;5144412;28;20187;-67
2022/04/18 08:05:07;;;;;;;8.80;5.67;;;17.10;58.50;;;;;;5145347;28;20207;-66
2022/04/18 08:07:59;;;;;;;8.77;5.87;;;17.10;58.60;;;;;;5145229;28;20203;-67
2022/04/18 08:10:51;;;;;;;9.80;7.23;;;17.10;58.60;;;;;;5163645;28;20950;-66
2022/04/18 08:13:44;;;;;;;9.23;6.53;;;17.10;58.60;;;;;;5163972;28;20819;-66
2022/04/18 08:16:37;;;;;;;8.77;7.00;;;17.20;58.50;;;;;;5158089;28;20436;-65
2022/04/18 08:19:29;;;;;;;6.73;5.77;;;17.30;58.10;;;;;;5163564;28;20226;-66
2022/04/18 08:22:21;;;;;;;7.90;5.80;;;17.30;58.10;;;;;;5176520;28;20199;-70
2022/04/18 08:25:14;;;;;;;8.05;6.13;;;17.30;58.30;;;;;;5183499;28;20419;-71
2022/04/18 08:28:06;;;;;;;7.90;5.87;;;17.30;58.10;;;;;;5184354;28;20198;-69
2022/04/18 08:30:59;;;;;;;7.80;5.37;;;17.20;58.30;;;;;;5183816;28;20262;-69
2022/04/18 08:33:52;;;;;;;7.03;5.47;;;17.20;58.30;;;;;;5171150;28;20210;-69
2022/04/18 08:36:44;;;;;;;6.57;5.17;;;17.20;58.30;;;;;;5164515;28;20590;-69
2022/04/18 08:39:36;;;;;;;7.50;4.87;;;17.20;58.40;;;;;;5162982;28;20234;-70
2022/04/18 08:42:34;;;;;;;10.10;5.40;;;17.20;58.50;;;;;;5164602;28;20199;-69
2022/04/18 08:45:27;;;;;;;6.43;4.40;;;17.10;58.40;;;;;;5163596;28;20206;-69
2022/04/18 08:54:41;;;;;;;6.63;4.10;;;17.10;58.40;;;;;;5164603;28;20195;-69
2022/04/18 08:57:33;;;;;;;6.67;4.43;;;17.10;58.50;;;;;;5165629;28;20210;-69
2022/04/18 09:00:27;;;;;;;5.70;3.90;;;17.10;58.50;;;;;;5145038;28;20302;-69
2022/04/18 09:03:19;;;;;;;5.20;4.00;;;17.00;58.50;;;;;;5146810;28;20690;-68
2022/04/18 09:06:13;;;;;;;5.53;4.20;;;17.10;58.60;;;;;;5181312;23;20731;-61
2022/04/18 09:09:06;;;;;;;6.77;4.00;;;17.10;58.60;;;;;;5218811;28;20208;-62
2022/04/18 09:11:58;;;;;;;5.23;3.97;;;17.10;58.60;;;;;;5228086;28;20199;-61
2022/04/18 09:14:51;;;;;;;5.10;3.27;;;17.10;58.60;;;;;;5242847;28;20588;-63
2022/04/18 09:17:43;;;;;;;5.73;3.70;;;17.00;58.60;;;;;;5207170;28;20218;-62
2022/04/18 09:20:41;;;;;;;6.37;3.73;;;17.00;58.60;;;;;;5215946;28;20661;-62
2022/04/18 09:23:35;;;;;;;4.87;3.13;;;17.00;58.60;;;;;;5227254;28;20196;-62
2022/04/18 09:26:29;;;;;;;5.60;3.43;;;17.00;58.60;;;;;;5207478;28;20218;-62
2022/04/18 09:29:21;;;;;;;4.13;3.27;;;17.00;58.60;;;;;;5206076;28;20653;-61
2022/04/18 09:32:14;;;;;;;3.23;2.67;;;17.00;58.70;;;;;;5207341;28;20738;-62
2022/04/18 09:35:07;;;;;;;4.20;3.53;;;17.00;58.70;;;;;;5208510;28;20489;-62
2022/04/18 09:38:01;;;;;;;3.70;2.83;;;17.00;58.70;;;;;;5207558;28;20381;-62
2022/04/18 09:40:53;;;;;;;4.13;3.03;;;17.00;58.70;;;;;;5207202;28;20688;-61
2022/04/18 09:43:50;;;;;;;3.30;2.57;;;17.00;58.60;;;;;;5195023;28;20596;-63
2022/04/18 09:46:43;;;;;;;3.97;3.20;;;17.00;58.70;;;;;;5207224;28;20220;-63
2022/04/18 09:49:39;;;;;;;3.67;2.57;;;17.00;58.60;;;;;;5207115;28;20221;-63
2022/04/18 09:52:34;;;;;;;4.57;2.90;;;17.00;57.80;;;;;;5188117;28;20190;-61
2022/04/18 09:55:26;;;;;;;3.40;2.70;;;17.00;57.50;;;;;;5187308;28;20198;-60
2022/04/18 09:58:19;;;;;;;2.90;1.90;;;17.00;56.60;;;;;;5186796;28;20222;-61
2022/04/18 10:01:13;;;;;;;2.90;2.57;;;17.00;56.40;;;;;;5203554;28;20197;-59
2022/04/18 10:04:07;;;;;;;3.03;2.30;;;17.00;56.10;;;;;;5218670;28;20204;-60
2022/04/18 10:07:01;;;;;;;3.27;2.17;;;17.00;55.30;;;;;;5226468;28;20700;-62
2022/04/18 10:09:54;;;;;;;4.73;2.27;;;17.00;54.70;;;;;;5226279;28;20695;-61
2022/04/18 10:12:46;;;;;;;3.57;2.23;;;17.10;55.10;;;;;;5225873;28;20193;-61
2022/04/18 10:15:40;;;;;;;2.43;1.80;;;17.10;54.60;;;;;;5226264;28;20212;-60
2022/04/18 10:18:40;;;;;;;2.77;2.03;;;17.00;53.80;;;;;;5202399;28;20314;-61
2022/04/18 10:21:33;;;;;;;3.03;2.17;;;17.00;53.30;;;;;;5220959;28;20557;-61
2022/04/18 10:24:45;;;;;;;3.53;1.73;;;17.00;53.10;;;;;;5201165;28;20198;-64
2022/04/18 10:28:00;;;;;;;2.80;1.80;;;17.00;53.30;;;;;;5206210;28;20221;-65
2022/04/18 10:30:55;;;;;;;1.83;1.33;;;17.00;53.20;;;;;;5213174;28;20196;-64
2022/04/18 10:33:50;;;;;;;2.90;1.60;;;17.00;53.20;;;;;;5226802;28;20189;-64
2022/04/18 10:36:47;;;;;;;1.67;1.40;;;17.10;52.80;;;;;;5205058;28;20214;-65
2022/04/18 10:39:40;;;;;;;3.93;2.20;;;17.00;52.90;;;;;;5207279;28;20194;-64
2022/04/18 10:42:34;;;;;;;2.27;2.00;;;17.00;52.60;;;;;;5204850;28;20233;-64
2022/04/18 10:45:27;;;;;;;2.60;1.80;;;17.00;52.40;;;;;;5200501;28;20206;-64
2022/04/18 10:48:19;;;;;;;2.80;1.83;;;17.00;52.30;;;;;;5186459;28;20769;-64
2022/04/18 10:51:28;;;;;;;2.07;1.87;;;17.00;51.90;;;;;;5195804;28;20193;-64
2022/04/18 10:54:22;;;;;;;4.17;1.90;;;17.00;51.90;;;;;;5226326;28;20197;-65
2022/04/18 10:57:16;;;;;;;2.00;1.70;;;17.00;52.20;;;;;;5225396;28;20224;-64
2022/04/18 11:00:10;;;;;;;1.93;1.50;;;17.00;51.90;;;;;;5225419;28;20193;-64
2022/04/18 11:03:02;;;;;;;3.10;1.53;;;17.10;52.20;;;;;;5226023;28;20199;-64
2022/04/18 11:05:54;;;;;;;2.43;1.77;;;17.00;51.50;;;;;;5219660;28;20232;-64
2022/04/18 11:09:00;;;;;;;1.90;1.63;;;17.00;51.40;;;;;;5196903;28;20198;-64
2022/04/18 11:11:56;;;;;;;1.77;1.60;;;17.00;51.50;;;;;;5185136;28;20214;-64
2022/04/18 11:14:53;;;;;;;2.97;1.40;;;17.00;51.00;;;;;;5186705;28;20194;-64
2022/04/18 11:17:45;;;;;;;2.23;1.70;;;17.00;51.10;;;;;;5201444;28;20217;-65
2022/04/18 11:20:38;;;;;;;2.20;1.73;;;17.00;51.00;;;;;;5204621;28;20196;-64
2022/04/18 11:23:32;;;;;;;1.90;1.37;;;17.00;50.70;;;;;;5206665;28;20198;-64
2022/04/18 11:26:28;;;;;;;1.87;1.43;;;17.00;50.90;;;;;;5198735;28;20229;-64
2022/04/18 11:29:21;;;;;;;1.87;1.37;;;17.00;50.90;;;;;;5185049;28;20517;-64
2022/04/18 11:32:16;;;;;;;1.50;1.33;;;17.00;50.10;;;;;;5214100;28;20193;-63
2022/04/18 11:35:10;;;;;;;1.90;1.40;;;17.00;50.50;;;;;;5225225;28;20248;-64
2022/04/18 11:38:08;;;;;;;3.07;1.20;;;17.00;50.40;;;;;;5225109;28;20213;-65
2022/04/18 11:41:00;;;;;;;2.80;1.57;;;17.00;49.80;;;;;;5217111;28;20190;-64
2022/04/18 11:43:59;;;;;;;2.10;1.47;;;17.00;49.80;;;;;;5204798;28;20209;-65
2022/04/18 11:46:51;;;;;;;2.57;1.70;;;17.00;49.90;;;;;;5205268;28;20213;-65
2022/04/18 11:49:45;;;;;;;3.10;1.40;;;17.00;49.70;;;;;;5205535;28;20196;-65
2022/04/18 11:52:39;;;;;;;2.30;1.50;;;17.00;49.70;;;;;;5185000;28;20238;-64
2022/04/18 11:55:31;;;;;;;2.33;1.60;;;17.00;49.80;;;;;;5183950;28;20713;-64
2022/04/18 11:58:24;;;;;;;1.80;1.50;;;17.00;49.60;;;;;;5184339;28;20218;-64
2022/04/18 12:07:52;;;;;;;2.27;1.50;;;16.90;49.20;;;;;;5160490;28;20210;-64
2022/04/18 12:10:45;;;;;;;2.67;1.17;;;17.00;49.60;;;;;;5161146;28;20718;-65
2022/04/18 12:13:43;;;;;;;1.73;1.30;;;17.00;49.00;;;;;;5202819;28;20811;-65
2022/04/18 12:16:39;;;;;;;2.23;1.20;;;16.90;48.60;;;;;;5204602;28;20209;-65
2022/04/18 12:19:31;;;;;;;1.10;1.00;;;16.90;49.20;;;;;;5202140;28;20194;-65
2022/04/18 12:22:23;;;;;;;1.60;0.97;;;16.90;49.80;;;;;;5196559;28;20205;-65
2022/04/18 12:25:20;;;;;;;3.33;1.33;;;17.00;50.10;;;;;;5207055;28;20581;-65
2022/04/18 12:28:12;;;;;;;1.53;1.37;;;16.90;49.60;;;;;;5204745;28;20201;-64
2022/04/18 12:31:09;;;;;;;1.13;1.03;;;16.90;49.90;;;;;;5202706;28;20194;-64
2022/04/18 12:34:02;;;;;;;2.50;1.03;;;16.90;49.90;;;;;;5221209;28;20189;-64
2022/04/18 12:36:58;;;;;;;1.27;1.10;;;16.90;49.60;;;;;;5224003;28;20227;-64
2022/04/18 12:40:09;;;;;;;2.30;1.40;;;16.90;49.80;;;;;;5200580;28;20209;-64
2022/04/18 12:43:09;;;;;;;1.50;1.00;;;16.90;49.60;;;;;;5203897;28;20201;-64
2022/04/18 12:46:02;;;;;;;2.20;1.50;;;16.90;49.30;;;;;;5203787;28;20323;-64
2022/04/18 12:48:55;;;;;;;1.73;1.07;;;16.90;49.40;;;;;;5203701;28;20204;-64
2022/04/18 12:51:51;;;;;;;1.40;1.00;;;16.90;49.00;;;;;;5203314;28;20201;-64
2022/04/18 12:54:46;;;;;;;1.93;1.30;;;16.90;49.40;;;;;;5191650;28;20205;-64
2022/04/18 12:57:38;;;;;;;2.10;1.40;;;16.90;49.20;;;;;;5184218;28;20214;-64
2022/04/18 13:00:35;;;;;;;1.57;1.10;;;16.90;49.00;;;;;;5183798;28;20217;-64
2022/04/18 13:03:28;;;;;;;1.63;1.30;;;16.90;49.00;;;;;;5200737;28;20196;-64
2022/04/18 13:06:23;;;;;;;1.20;0.93;;;16.90;49.00;;;;;;5223475;28;20213;-64
2022/04/18 13:09:18;;;;;;;2.63;1.20;;;16.90;48.70;;;;;;5222634;28;20189;-64
2022/04/18 13:12:10;;;;;;;1.90;1.33;;;16.90;48.60;;;;;;5195868;28;20198;-64
2022/04/18 13:15:05;;;;;;;3.27;1.50;;;16.90;48.60;;;;;;5184232;28;20195;-64
2022/04/18 13:17:59;;;;;;;2.10;1.20;;;16.90;48.50;;;;;;5201727;28;20221;-64
2022/04/18 13:20:51;;;;;;;3.37;1.20;;;16.90;48.70;;;;;;5203807;28;20198;-63
2022/04/18 13:23:43;;;;;;;1.60;1.20;;;16.90;48.50;;;;;;5203389;28;20202;-64
2022/04/18 13:26:38;;;;;;;1.57;1.13;;;17.00;48.80;;;;;;5203388;28;20222;-64
2022/04/18 13:29:30;;;;;;;2.37;1.17;;;16.90;48.90;;;;;;5192151;28;20202;-64
2022/04/18 13:32:24;;;;;;;1.73;1.20;;;16.90;48.80;;;;;;5183842;28;20690;-64
2022/04/18 13:35:17;;;;;;;1.60;1.20;;;16.90;49.10;;;;;;5223510;28;20200;-64
2022/04/18 13:38:09;;;;;;;1.00;0.90;;;16.90;48.50;;;;;;5224155;28;20224;-63
2022/04/18 13:41:01;;;;;;;1.17;1.00;;;16.90;48.60;;;;;;5223427;28;20201;-63
2022/04/18 13:43:55;;;;;;;2.30;1.13;;;16.90;48.80;;;;;;5204188;28;20674;-64
2022/04/18 13:46:47;;;;;;;1.37;1.10;;;16.90;48.40;;;;;;5197418;28;20218;-64
2022/04/18 13:49:40;;;;;;;1.30;1.10;;;16.90;48.40;;;;;;5200968;28;20562;-64
2022/04/18 13:52:32;;;;;;;1.30;1.00;;;16.90;48.70;;;;;;5186834;28;20662;-64
2022/04/18 13:55:24;;;;;;;2.73;1.17;;;16.90;48.30;;;;;;5187069;28;20199;-64
2022/04/18 13:58:16;;;;;;;1.87;1.10;;;16.90;48.30;;;;;;5187406;28;20215;-64
2022/04/18 14:01:10;;;;;;;1.57;1.10;;;16.90;48.40;;;;;;5187721;28;20244;-64
2022/04/18 14:04:03;;;;;;;2.43;1.10;;;16.90;48.20;;;;;;5190348;28;20662;-64
2022/04/18 14:06:56;;;;;;;1.30;1.07;;;16.90;48.20;;;;;;5186713;28;20226;-64
2022/04/18 14:09:48;;;;;;;2.53;1.13;;;16.90;47.90;;;;;;5198004;28;20200;-64
2022/04/18 14:12:41;;;;;;;1.27;1.10;;;16.90;48.20;;;;;;5212792;28;20196;-64
2022/04/18 14:21:54;;;;;;;1.07;0.87;;;16.90;48.00;;;;;;5205763;28;20190;-64
2022/04/18 14:24:46;;;;;;;4.00;0.90;;;16.90;48.20;;;;;;5193701;28;20214;-64
2022/04/18 14:27:39;;;;;;;2.77;1.10;;;16.90;48.20;;;;;;5186386;28;20519;-64
2022/04/18 14:30:31;;;;;;;1.40;1.00;;;16.90;48.30;;;;;;5202597;28;20194;-64
2022/04/18 14:33:23;;;;;;;1.27;0.93;;;16.90;48.20;;;;;;5205919;28;20364;-64
2022/04/18 14:36:19;;;;;;;1.97;1.00;;;16.90;48.00;;;;;;5206671;28;20217;-64
2022/04/18 14:39:11;;;;;;;1.43;0.93;;;16.90;48.20;;;;;;5206583;28;20713;-64
2022/04/18 14:42:03;;;;;;;2.27;1.20;;;16.90;48.20;;;;;;5190767;28;20199;-64
2022/04/18 14:44:55;;;;;;;1.63;1.13;;;16.90;48.20;;;;;;5186193;28;20199;-64
2022/04/18 14:47:47;;;;;;;2.17;1.20;;;16.90;48.00;;;;;;5186683;28;20197;-64
2022/04/18 14:50:40;;;;;;;2.10;0.90;;;16.90;48.20;;;;;;5203097;28;20665;-64
2022/04/18 14:53:34;;;;;;;1.23;1.00;;;16.90;48.10;;;;;;5205528;28;20551;-64
2022/04/18 14:56:26;;;;;;;1.37;0.90;;;16.90;48.10;;;;;;5204782;28;20225;-64
2022/04/18 14:59:18;;;;;;;0.70;0.70;;;16.90;47.90;;;;;;5205806;28;20684;-64
2022/04/18 15:02:10;;;;;;;1.90;1.00;;;16.90;48.10;;;;;;5204028;28;20200;-64
2022/04/18 15:05:02;;;;;;;1.23;1.00;;;16.90;48.10;;;;;;5185738;28;20202;-65
2022/04/18 15:07:55;;;;;;;1.40;1.00;;;16.90;48.00;;;;;;5215358;23;20261;-67
2022/04/18 15:10:48;;;;;;;1.87;1.03;;;16.90;48.10;;;;;;5204773;28;20198;-67
2022/04/18 15:13:40;;;;;;;0.70;0.67;;;16.90;47.80;;;;;;5205866;28;20204;-67
2022/04/18 15:16:32;;;;;;;1.40;1.00;;;16.90;48.00;;;;;;5204521;28;20225;-66
2022/04/18 15:19:25;;;;;;;3.07;0.97;;;16.90;48.00;;;;;;5207428;28;20210;-67
2022/04/18 15:22:17;;;;;;;1.23;0.80;;;16.90;48.00;;;;;;5187920;28;20197;-67
2022/04/18 15:25:10;;;;;;;1.17;1.00;;;16.90;47.60;;;;;;5184599;28;20202;-67
2022/04/18 15:28:05;;;;;;;1.20;0.80;;;16.90;47.90;;;;;;5202104;28;20240;-67
2022/04/18 15:34:09;;;;;;;1.13;0.70;;;16.80;47.90;;;;;;5185435;28;20259;-66
2022/04/18 15:37:04;;;;;;;1.43;0.70;;;16.90;47.90;;;;;;5191990;28;20233;-66